National Weather Service United States Department of Commerce

Wildire Danger Continues in Southern California

High pressure building into the Western U.S. will create strong offshore winds in southern California. Temperatures in this region are unseasonably hot, and conditions are dry. The combination of these strong winds and dry conditions will bring fire danger to portions of southern California. Red Flag Warnings are in effect here. Any new fires in this region could quickly grow out of control. Read More >

  Select Oklahoma Tornado statistics by Year for the period 1950 to the present year from the menus below.
Tornadoes by Month
Jan Feb Mar Apr May Jun Jul Aug Sep Oct Nov Dec Total
0 0 7 5 83 1 3 0 0 0 9 3 111
 
Tornadoes by Intensity
EF? EF0 EF1 EF2 EF3 EF4 EF5 Total
0 59 38 10 4 0 0 111
 
Tornado
Number
Date Time
(CST)
Length
of Path
(miles)
Width
of Path
(yards)
F-Scale Killed Injured County Location
1 03/25/2015 1621-1638 11.1 800 EF2 1 30 Pawnee/Osage/Tulsa 4 SE Westport - 0.6 SW Sand Springs
2 03/25/2015 1701-1705 2.3 600 EF0 0 0 Tulsa 1.8 S - 3.7 SE Tulsa Intl Airport
3 03/25/2015 1723-1723 0.66 50 EF0 0 0 Canadian 6 WSW-5 WSW Yukon
4 03/25/2015 1729-1729 0.2 30 EF0 0 0 Oklahoma Oklahoma City (south of NW 10th/Rockwell)
5 03/25/2015 1734-1750 11 50 EF2 0 7 Cleveland 4.5 WNW - 7 SE Moore
6 03/25/2015 1802-1802 0.1 50 EF0 0 0 Mayes 1.6 NW Mazie
7 03/25/2015 1906-1906 0.1 50 EF0 0 0 Adair 5 W Watts
8 04/02/2015 2059-2119 12.3 800 EF1 0 1 Craig/Ottawa/Delaware 5.5 NE Vinita - 3.3 NE Bernice
9 04/08/2015 1958-1958 0.2 30 EF0 0 0 Custer 4 NE Hammon
10 04/08/2015 2008-2008 0.2 30 EF0 0 0 Custer 4 NW Butler
11 04/16/2015 1900-1915 4.5 150 EF1 0 0 Beckham 5.5 WNW Delhi - 7 ENE Erick
12 04/18/2015 1506-1506 0.5 40 EF0 0 0 Woods 7 WSW Carmen
13 05/06/2015 0158-0200 1.5 100 EF0 0 0 Creek 5.5 SSW - 4.5 S Kellyville
14 05/06/2015 1345-1347 2 50 EF0 0 0 Caddo 2.5 E-3 ENE Apache
15 05/06/2015 1353-1355 0.5 50 EF0 0 0 Caddo 4 NW Cyril
16 05/06/2015 1533-1626 10 1500 EF3 0 0 Grady 4.5 E Amber - 4 NNE Bridge Creek
17 05/06/2015 1537-1538 0.1 20 EF0 0 0 Major 5 S Ringwood
18 05/06/2015 1548-1548 0.3 50 EF0 0 0 Grady 5 ENE Amber
19 05/06/2015 1615-1615 0.1 10 EF0 0 0 Garfield 2 SSW Carrier
20 05/06/2015 1633-1639 1 200 EF1 0 0 McClain 2 SE Newcastle
21 05/06/2015 1646-1646 0.5 25 EF0 0 0 Cleveland Norman
22 05/06/2015 1653-1710 3.25 1000 EF1 0 0 Cleveland Norman
23 05/06/2015 1733-1733 0.3 30 EF0 0 0 Dewey 10 ESE Seiling
24 05/06/2015 1741-1749 3.5 200 EF0 0 0 Caddo 4 NNW - 6 N Verden
25 05/06/2015 1756-1757 0.3 20 EF0 0 0 Grant 5 SSW Wakita
26 05/06/2015 1849-1851 0.5 40 EF0 0 0 Grady 3 SE Tuttle
27 05/06/2015 1911-1921 3.5 200 EF0 0 0 Grady 4 ENE Tuttle - 2 NE Bridge Creek
28 05/06/2015 1941-1948 2 700 EF3 0 12 Oklahoma SE OKC (SE 56th/Eastern to just west of SE 44th/I-35)
29 05/08/2015 1704-1704 0.2 50 EF0 0 0 Cotton 2 W Randlett
30 05/08/2015 1716-1716 0.2 50 EF0 0 0 Cotton 5 ESE Randlett
31 05/08/2015 1740-1740 0.5 50 EF0 0 0 Jefferson 6 W Waurika
32 05/08/2015 1808-1808 0.2 50 EF0 0 0 Jefferson 1 E Waurkia
33 05/09/2015 1630-1630 0.3 30 EF0 0 0 Love 1 E Thackerville
34 05/09/2015 1650-1650 0.3 30 EF0 0 0 Love 7 SE Marietta
35 05/09/2015 1709-1711 1 100 EF0 0 0 Cotton 5 W Randlett
36 05/09/2015 1724-1730 3 200 EF0 0 0 Marshall 2-5 N Willis
37 05/09/2015 1825-1835 5 200 EF1 0 0 Bryan 1 SSW Silo - 5 NNW Durant
38 05/09/2015 1924-1926 2 100 EF0 0 0 Beckham/ Roger Mills 6.5 N Elk City - 1 SSW Carpenter
39 05/10/2015 0801-0804 3.8 240 EF1 0 0 Pittsburg 1 SE MLC Airport - 3 SE McAlester
40 05/10/2015 1718-1721 1.7 100 EF0 0 0 Pushmataha 7.5 NW - 8 NNW Moyers
41 05/10/2015 1818-1841 15 880 EF2 0 0 Latimer 2.9 S Veterans Colony - 3.7 SW Red Oak
42 05/10/2015 1846-1852 3.7 75 EF0 0 0 Latimer 1.6 NW - 4.1 NE Red Oak
43 05/16/2015 1549-1555 3.5 100 EF1 0 0 Roger Mills 12 NE - 15 NNE Strong City
44 05/16/2015 1605-1605 0.5 50 EF1 0 0 Dewey 5 NNE Leedey
45 05/16/2015 1626-1745 40 1600 EF3 0 0 Hardeman TX. Wilbarger TX/ Jackson/ Wilbarger TX/ Jackson/ Tillman/ Kiowa 8 N Chillicothe TX - 3 E Snyder
46 05/16/2015 1647-1647 0.2 30 EF0 0 0 Beckham 2 NE Elk City
47 05/16/2015 1705-1705 0.2 20 EF0 0 0 Tillman 2 WNW Tipton
48 05/16/2015 1722-1742 15 50 EF1 0 0 Major/ Alfalfa 5.5 NW Fairview - Cleo Springs - 5 SE Aline
49 05/16/2015 1814-1824 7 400 EF1 0 0 Comanche 6 SW Meers - 1.5 N Meers
50 05/16/2015 1855-1858 2 50 EF0 0 0 Caddo 4 NW Cyril - 5 NNW Cyril
51 05/16/2015 1858-1908 6 50 EF0 0 0 Comanche 4 SW - 4 ESE Geronimo
52 05/16/2015 1901-1905 2.5 50 EF0 0 0 Caddo 5 NNW Cyril - 5 NW Cement
53 05/16/2015 2120-2121 1.4 110 EF1 0 0 Okfuskee 3.7 NE - 5.1 NE Okemah
54 05/16/2015 2226-2241 16 1000 EF2 0 0 Wagoner/ Rogers 4.4 SW Oneta - 3.4 WSW Inola
55 05/16/2015 2243-2251 9.8 1500 EF2 0 0 Rogers 3.7 WNW Inola - 5.7 ENE Tiawah
56 05/16/2015 2252-2256 3.3 300 EF1 0 0 Rogers 5.4 NE - 8.4 NE Tiawah
57 05/16/2015 2300-2303 2.3 450 EF1 0 0 Mayes 5.9 NW - 6.2 NW Pryor
58 05/16/2015 2310-2316 4.5 600 EF1 0 0 Mayes 2.5 NNW - 5.8 NE Adair
59 05/16/2015 2324-2329 4.6 550 EF1 0 0 Craig/ Delaware 2.4 NNE Ketchum - 2 NNE Cleora
60 05/16/2015 2330-2338 6.7 1100 EF1 0 0 Delaware/ Ottawa 2.1 WNW Bernice - 4.9 E Afton
61 05/16/2015 2338-2350 11.5 650 EF1 0 1 Ottawa 4.9 SSE Fairland - 2.3 ESE Wyandotte
62 05/16/2015 2351-2353 1.4 200 EF1 0 0 Ottawa 5 ESE - 6 E Wyandotte
63 05/19/2015 1340-1340 0.1 20 EF0 0 0 McClain 9 W Wayne
64 05/19/2015 1351-1351 0.1 20 EF0 0 0 McClain 5 SW Purcell
65 05/19/2015 1422-1422 0.1 20 EF0 0 0 Cleveland 4 ENE Lexington
66 05/19/2015 1454-1504 1 400 EF0 0 0 Tillman 4 WSW - 3 WSW Grandfield
67 05/19/2015 1519-1519 0.1 20 EF0 0 0 Pottawatomie 4 NW Macomb
68 05/19/2015 1716-1719 1 400 EF0 0 0 Jefferson 4 NNW Terral
69 05/19/2015 1723-1731 1 250 EF0 0 0 Jefferson 4 SSE Ryan
70 05/19/2015 1740-1744 2 200 EF0 0 0 Jefferson 4 W - 2 WNW Oscar
71 05/19/2015 1955-1955 0.3 30 EF0 0 0 Carter 8 SW Wilson
72 05/19/2015 2035-2043 1.5 50 EF0 0 0 Carter 5 SSE - 6 SSE Wilson
73 05/23/2015 1612-1632 6 500 EF1 0 0 Grady 3 W - 4 NNE Pocsset
74 05/23/2015 1659-1707 3 40 EF0 0 0 Murray 1 N - 4 N Sulphur
75 05/23/2015 1705-1705 0.2 20 EF0 0 0 Pontotoc 2.5 ESE Ada
76 05/23/2015 1710-1711 0.5 50 EF0 0 0 Murray 5 N Sulphur
77 05/23/2015 1711-1717 2 50 EF1 0 0 McClain 2.5 ESE - 3 NE Blanchard
78 05/23/2015 1716-1716 0.2 50 EF0 0 0 Garvin 9 S Stratford
79 05/23/2015 1725-1733 4 100 EF1 0 0 Ponotoc/ Seminole 2 NE Francis - 1 S Sasakwa.
80 05/23/2015 1730-1732 0.5 50 EF0 0 0 McClain 1 WSW Newcastle
81 05/23/2015 1805-1805 0.5 50 EF1 0 0 Garvin 3 ESE Maysville
82 05/23/2015 1813-1813 0.2 50 EF0 0 0 Hughes 2 N Holdenville
83 05/23/2015 1944-1947 1.6 75 EF0 0 0 Latimer 7.2 SW - 6.4 WSW Red Oak
84 05/25/2015 1342-1420 19 700 EF3 1 1 Bryan/ Atoka 2.5 WSW Blue - 3 E Caney
85 05/25/2015 1429-1441 8 1000 EF2 0 0 Atoka Harmony area - 3 E Atoka
86 05/25/2015 1506-1508 1 400 EF1 0 0 Atoka 5 NNE Stringtown
87 05/25/2015 1552-1612 13.3 1000 EF2 0 0 Pushmataha/ Latimer 8 ESE Clayton - 13.6 E Yanush
88 05/25/2015 1617-1625 6.4 600 EF1 0 0 LeFlore 3.4 SE - 5.6 ENE Whitesboro
89 05/25/2015 1634-1649 7.5 250 EF1 0 0 LeFlore 2.7 NE - 9.3 NNE Fanshawe
90 05/25/2015 1648-1707 15.5 1700 EF2 0 0 LeFlore 3.6 ENE Wister - 2.6 NW Panama
91 05/26/2015 1732-1732 0.2 30 EF0 0 0 Custer/ Caddo 3 WSW Hydro
92 05/28/2015 0858-0859 0.5 75 EF1 0 0 LeFlore 1.4 NNE - 1.7 NE Talihina
93 05/29/2015 1251-1306 5 400 EF1 0 0 Muskogee 8.7 S - 4.5 SE Webbers Falls
94 05/29/2015 1316-1319 1.5 100 EF0 0 0 Sequoyah 3.3 SE - 2.5 SE Gore
95 05/29/2015 1327-1347 9.5 1500 EF1 0 0 Mayes/Delaware 2.3 SW Spavinaw - 5 NW Eucha
96 06/17/2015 1325-1326 0.12 66 EF0 0 0 McCurtain 1 N Redland
97 07/07/2015 1642-1643 0.3 75 EF1 0 0 LeFlore 9.1 SW - 8.8 SW Bokoshe
98 07/09/2015 1608-1616 5.5 220 EF1 0 0 Cherokee 7 NE - 12.5 NE Tahlequah
99 07/09/2015 1618-1623 3.7 500 EF1 0 0 Adair 3.9 N - 6.9 NE Proctor
100 11/05/2015 1422-1426 2.5 100 EF0 0 0 Okfuskee 5.5 WSW - 3 W Okemah
101 11/05/2015 2118-2130 4.5 256 EF1 0 0 McCurtain 4.4 W - 1.1 N Bokhoma
102 11/16/2015 1900-1908 5 400 EF1 0 0 Ochiltree TX/ Beaver 2 WSW Booker TX - 3 N Booker TX
103 11/16/2015 1910-1918 4 100 EF0 0 0 Beaver 5 S - 3 SE Elmwood
104 11/16/2015 2020-2113 43 200 EF1 0 0 Hemphill TX/ Ochiltree TX/ Ellis 15 WSW Higgins TX - 8 NW Gage OK - 15 NNW Gage
105 11/16/2015 2108-2151 27 400 EF2 0 0 Ellis/ Harper 6 SSE May - 10 E Buffalo
106 11/16/2015 2124-2137 9.3 550 EF1 0 0 Beaver 5 NE Darrouzett TX - 6.5 W Slapout OK
107 11/16/2015 2209-2238 19 810 EF1 0 0 Harper/ Comanche KS 17 NW - 19 NW Freedom
108 11/17/2015 0543-0548 4.7 300 EF1 0 0 McIntosh 6 ESE - 7.5 ENE Checotah
109 12/12/2015 1803-1806 3.3 250 EF1 0 0 Choctaw 2.3 SSE - 1.3 NE Fort Towson
110 12/12/2015 1917-1937 7.4 600 EF2 0 3 McCurtain 3 W Valliant - 4 ESE Rufe
111 12/26/2015 1357 0.1 20 EF0 0 0 McClain 7 NE Byars